createdAt,value
2024-05-09T00:00:44.662Z,8.87
2024-05-09T00:03:32.410Z,8.83
2024-05-09T00:06:00.915Z,8.80
2024-05-09T00:08:28.897Z,8.79
2024-05-09T00:10:56.826Z,8.77
2024-05-09T00:13:24.559Z,8.75
2024-05-09T00:15:52.200Z,8.71
2024-05-09T00:18:20.066Z,8.67
2024-05-09T00:20:47.841Z,8.66
2024-05-09T00:23:15.870Z,8.62
2024-05-09T00:25:44.578Z,8.59
2024-05-09T00:28:12.734Z,8.58
2024-05-09T00:30:40.869Z,8.57
2024-05-09T00:33:10.382Z,8.53
2024-05-09T00:35:39.601Z,8.48
2024-05-09T00:38:07.929Z,8.39
2024-05-09T00:40:40.329Z,8.33
2024-05-09T00:43:14.515Z,8.31
2024-05-09T00:45:43.990Z,8.30
2024-05-09T00:48:15.365Z,8.27
2024-05-09T00:50:46.662Z,8.23
2024-05-09T00:53:16.394Z,8.18
2024-05-09T00:55:44.860Z,8.15
2024-05-09T00:58:17.977Z,8.09
2024-05-09T01:00:46.448Z,8.05
2024-05-09T01:03:14.749Z,8.02
2024-05-09T01:05:44.350Z,7.96
2024-05-09T01:08:13.192Z,7.91
2024-05-09T01:10:44.141Z,7.89
2024-05-09T01:13:13.698Z,7.88
2024-05-09T01:15:41.680Z,7.85
2024-05-09T01:18:11.661Z,7.83
2024-05-09T01:20:43.380Z,7.80
2024-05-09T01:23:15.213Z,7.76
2024-05-09T01:25:44.998Z,7.73
2024-05-09T01:28:13.323Z,7.69
2024-05-09T01:30:40.947Z,7.65
2024-05-09T01:33:10.520Z,7.64
2024-05-09T01:35:42.051Z,7.60
2024-05-09T01:38:13.806Z,7.57
2024-05-09T01:40:43.442Z,7.54
2024-05-09T01:43:12.070Z,7.50
2024-05-09T01:45:40.607Z,7.48
2024-05-09T01:48:10.171Z,7.45
2024-05-09T01:50:41.729Z,7.41
2024-05-09T01:53:13.519Z,7.36
2024-05-09T01:55:42.220Z,7.29
2024-05-09T01:58:10.078Z,7.25
2024-05-09T02:00:42.117Z,7.24
2024-05-09T02:03:16.901Z,7.23
2024-05-09T02:05:50.048Z,7.20
2024-05-09T02:08:19.925Z,7.17
2024-05-09T02:10:49.335Z,7.15
2024-05-09T02:13:17.394Z,7.13
2024-05-09T02:15:45.237Z,7.10
2024-05-09T02:18:13.714Z,7.06
2024-05-09T02:20:42.762Z,7.01
2024-05-09T02:23:11.413Z,6.94
2024-05-09T02:25:39.906Z,6.91
2024-05-09T02:28:07.935Z,6.89
2024-05-09T02:30:40.038Z,6.88
2024-05-09T02:33:11.870Z,6.87
2024-05-09T02:35:42.405Z,6.85
2024-05-09T02:38:11.071Z,6.84
2024-05-09T02:40:39.991Z,6.82
2024-05-09T02:43:10.635Z,6.79
2024-05-09T02:45:40.042Z,6.75
2024-05-09T02:48:13.108Z,6.72
2024-05-09T02:50:41.993Z,6.68
2024-05-09T02:53:14.181Z,6.63
2024-05-09T02:55:43.361Z,6.58
2024-05-09T02:58:11.847Z,6.57
2024-05-09T03:00:41.958Z,6.54
2024-05-09T03:03:13.603Z,6.51
2024-05-09T03:05:46.923Z,6.49
2024-05-09T03:08:14.985Z,6.46
2024-05-09T03:10:43.021Z,6.44
2024-05-09T03:13:14.384Z,6.43
2024-05-09T03:15:44.228Z,6.43
2024-05-09T03:18:12.738Z,6.43
2024-05-09T03:20:40.964Z,6.43
2024-05-09T03:23:10.235Z,6.43
2024-05-09T03:25:41.389Z,6.43
2024-05-09T03:28:09.123Z,6.43
2024-05-09T03:30:41.782Z,6.44
2024-05-09T03:33:13.364Z,6.44
2024-05-09T03:35:43.568Z,6.43
2024-05-09T03:38:11.558Z,6.43
2024-05-09T03:40:46.873Z,6.43
2024-05-09T03:43:15.214Z,6.44
2024-05-09T03:45:43.567Z,6.43
2024-05-09T03:48:11.571Z,6.45
2024-05-09T03:50:39.567Z,6.48
2024-05-09T03:53:10.424Z,6.49
2024-05-09T03:55:38.845Z,6.51
2024-05-09T03:58:07.711Z,6.54
2024-05-09T04:00:40.009Z,6.57
2024-05-09T04:03:10.793Z,6.59
2024-05-09T04:05:42.598Z,6.62
2024-05-09T04:08:11.573Z,6.64
2024-05-09T04:10:40.660Z,6.64
2024-05-09T04:13:09.643Z,6.64
2024-05-09T04:15:37.268Z,6.65
2024-05-09T04:18:05.380Z,6.67
2024-05-09T04:20:38.590Z,6.69
2024-05-09T04:23:13.628Z,6.72
2024-05-09T04:25:44.066Z,6.78
2024-05-09T04:28:12.195Z,6.84
2024-05-09T04:30:41.494Z,6.89
2024-05-09T04:33:12.250Z,6.94
2024-05-09T04:35:45.115Z,6.95
2024-05-09T04:38:13.996Z,6.99
2024-05-09T04:40:42.379Z,7.02
2024-05-09T04:43:18.628Z,7.08
2024-05-09T04:45:46.665Z,7.15
2024-05-09T04:48:14.866Z,7.21
2024-05-09T04:50:42.969Z,7.27
2024-05-09T04:53:15.933Z,7.35
2024-05-09T04:55:43.699Z,7.43
2024-05-09T04:58:11.536Z,7.53
2024-05-09T05:00:40.575Z,7.61
2024-05-09T05:03:13.705Z,7.69
2024-05-09T05:05:45.352Z,7.77
2024-05-09T05:08:15.404Z,7.83
2024-05-09T05:10:43.911Z,7.85
2024-05-09T05:13:22.591Z,7.91
2024-05-09T05:15:56.935Z,8.00
2024-05-09T05:18:27.394Z,8.07
2024-05-09T05:20:56.042Z,8.15
2024-05-09T05:23:24.687Z,8.23
2024-05-09T05:25:53.555Z,8.31
2024-05-09T05:28:22.473Z,8.39
2024-05-09T05:30:50.302Z,8.46
2024-05-09T05:33:19.139Z,8.55
2024-05-09T05:35:47.631Z,8.65
2024-05-09T05:38:15.600Z,8.75
2024-05-09T05:40:43.398Z,8.83
2024-05-09T05:43:17.136Z,8.88
2024-05-09T05:45:45.360Z,8.94
2024-05-09T05:48:16.063Z,9.04
2024-05-09T05:50:44.376Z,9.15
2024-05-09T05:53:12.356Z,9.26
2024-05-09T05:55:40.997Z,9.34
2024-05-09T05:58:10.353Z,9.43
2024-05-09T06:00:40.202Z,9.53
2024-05-09T06:03:09.959Z,9.65
2024-05-09T06:05:43.334Z,9.75
2024-05-09T06:08:11.517Z,9.85
2024-05-09T06:10:41.008Z,9.95
2024-05-09T06:13:13.313Z,10.03
2024-05-09T06:15:41.986Z,10.11
2024-05-09T06:18:11.232Z,10.18
2024-05-09T06:20:41.905Z,10.25
2024-05-09T06:23:11.065Z,10.34
2024-05-09T06:25:38.965Z,10.39
2024-05-09T06:28:06.854Z,10.43
2024-05-09T06:30:40.055Z,10.52
2024-05-09T06:33:12.791Z,10.68
2024-05-09T06:35:43.645Z,10.78
2024-05-09T06:38:11.954Z,10.86
2024-05-09T06:40:42.193Z,10.97
2024-05-09T06:43:16.751Z,11.05
2024-05-09T06:45:52.399Z,11.14
2024-05-09T06:48:21.069Z,11.28
2024-05-09T06:50:50.001Z,11.38
2024-05-09T06:53:21.091Z,11.45
2024-05-09T06:55:49.157Z,11.53
2024-05-09T06:58:16.922Z,11.65
2024-05-09T07:00:44.782Z,11.74
2024-05-09T07:03:16.985Z,11.77
2024-05-09T07:05:48.175Z,11.78
2024-05-09T07:08:18.074Z,11.79
2024-05-09T07:10:46.379Z,11.83
2024-05-09T07:13:15.061Z,11.91
2024-05-09T07:15:43.242Z,12.05
2024-05-09T07:18:18.567Z,12.25
2024-05-09T07:20:49.595Z,12.45
2024-05-09T07:23:18.657Z,12.57
2024-05-09T07:25:46.673Z,12.72
2024-05-09T07:28:15.138Z,12.85
2024-05-09T07:30:43.067Z,12.96
2024-05-09T07:33:22.855Z,12.95
2024-05-09T07:35:52.366Z,12.87
2024-05-09T07:38:20.273Z,12.72
2024-05-09T07:40:48.520Z,12.69
2024-05-09T07:43:18.944Z,12.81
2024-05-09T07:45:52.549Z,12.97
2024-05-09T07:52:38.536Z,13.34
2024-05-09T07:53:47.468Z,13.46
2024-05-09T07:56:20.396Z,13.54
2024-05-09T07:58:52.361Z,13.57
2024-05-09T08:01:20.742Z,13.60
2024-05-09T08:03:48.971Z,13.62
2024-05-09T08:06:16.995Z,13.58
2024-05-09T08:08:47.575Z,13.48
2024-05-09T08:11:15.263Z,13.45
2024-05-09T08:13:43.005Z,13.43
2024-05-09T08:16:10.699Z,13.43
2024-05-09T08:18:38.643Z,13.48
2024-05-09T08:21:06.502Z,13.53
2024-05-09T08:23:34.246Z,13.63
2024-05-09T08:26:01.807Z,13.69
2024-05-09T08:28:29.440Z,13.63
2024-05-09T08:30:57.299Z,13.68
2024-05-09T08:33:25.253Z,13.88
2024-05-09T08:35:52.946Z,13.98
2024-05-09T08:38:20.742Z,14.02
2024-05-09T08:40:49.109Z,14.10
2024-05-09T08:43:19.731Z,14.08
2024-05-09T08:45:49.545Z,14.06
2024-05-09T08:48:19.663Z,14.16
2024-05-09T08:50:50.208Z,14.24
2024-05-09T08:53:18.777Z,14.42
2024-05-09T08:55:47.114Z,14.65
2024-05-09T08:58:19.232Z,14.76
2024-05-09T09:00:47.822Z,14.83
2024-05-09T09:03:18.308Z,15.03
2024-05-09T09:06:11.506Z,15.17
2024-05-09T09:08:39.595Z,15.31
2024-05-09T09:11:07.259Z,15.52
2024-05-09T09:13:35.003Z,15.62
2024-05-09T09:16:03.445Z,15.77
2024-05-09T09:18:32.777Z,16.05
2024-05-09T09:21:00.652Z,16.53
2024-05-09T09:23:29.570Z,16.78
2024-05-09T09:26:00.715Z,16.74
2024-05-09T09:28:29.561Z,16.57
2024-05-09T09:31:04.078Z,16.74
2024-05-09T09:33:32.655Z,17.14
2024-05-09T09:36:02.808Z,17.18
2024-05-09T09:38:32.233Z,17.22
2024-05-09T09:41:03.036Z,17.65
2024-05-09T09:43:32.822Z,18.11
2024-05-09T09:46:01.894Z,18.51
2024-05-09T09:48:32.050Z,18.83
2024-05-09T09:51:00.717Z,18.65
2024-05-09T09:53:28.896Z,18.62
2024-05-09T09:55:57.596Z,18.47
2024-05-09T09:58:25.457Z,18.42
2024-05-09T10:00:53.392Z,18.74
2024-05-09T10:03:21.174Z,18.96
2024-05-09T10:05:49.532Z,19.23
2024-05-09T10:08:18.498Z,19.38
2024-05-09T10:10:50.076Z,19.40
2024-05-09T10:13:19.751Z,19.77
2024-05-09T10:15:51.713Z,20.26
2024-05-09T10:18:26.098Z,20.54
2024-05-09T10:20:56.034Z,20.63
2024-05-09T10:23:27.212Z,20.49
2024-05-09T10:26:00.154Z,20.54
2024-05-09T10:28:29.293Z,20.01
2024-05-09T10:31:10.785Z,19.57
2024-05-09T10:33:51.004Z,19.82
2024-05-09T10:36:24.302Z,19.59
2024-05-09T10:38:55.335Z,19.64
2024-05-09T10:41:23.484Z,19.99
2024-05-09T10:43:52.133Z,20.18
2024-05-09T10:46:20.237Z,20.33
2024-05-09T10:48:48.792Z,20.63
2024-05-09T10:51:19.337Z,20.89
2024-05-09T10:53:47.881Z,21.16
2024-05-09T10:56:16.364Z,21.44
2024-05-09T10:58:44.269Z,21.49
2024-05-09T11:01:13.023Z,21.55
2024-05-09T11:03:41.708Z,21.72
2024-05-09T11:06:11.093Z,21.84
2024-05-09T11:08:39.294Z,21.66
2024-05-09T11:11:08.803Z,21.73
2024-05-09T11:13:38.711Z,21.57
2024-05-09T11:16:17.409Z,21.38
2024-05-09T11:18:56.684Z,21.15
2024-05-09T11:21:25.181Z,21.20
2024-05-09T11:23:53.294Z,21.30
2024-05-09T11:26:21.916Z,21.14
2024-05-09T11:28:50.429Z,20.96
2024-05-09T11:31:18.549Z,20.79
2024-05-09T11:33:46.602Z,20.23
2024-05-09T11:36:14.913Z,20.29
2024-05-09T11:38:43.005Z,20.71
2024-05-09T11:41:17.786Z,21.09
2024-05-09T11:43:45.518Z,21.12
2024-05-09T11:46:13.511Z,21.08
2024-05-09T11:48:41.674Z,21.03
2024-05-09T11:51:09.461Z,21.13
2024-05-09T11:53:37.082Z,21.43
2024-05-09T11:56:05.263Z,21.76
2024-05-09T11:58:34.768Z,22.07
2024-05-09T12:01:02.900Z,22.27
2024-05-09T12:03:31.077Z,22.27
2024-05-09T12:05:59.275Z,21.95
2024-05-09T12:08:27.213Z,21.79
2024-05-09T12:10:55.161Z,21.66
2024-05-09T12:13:23.060Z,21.50
2024-05-09T12:15:50.862Z,21.82
2024-05-09T12:18:18.596Z,22.27
2024-05-09T12:20:46.308Z,22.36
2024-05-09T12:23:14.458Z,21.96
2024-05-09T12:25:42.222Z,21.98
2024-05-09T12:28:10.278Z,22.42
2024-05-09T12:30:40.433Z,22.67
2024-05-09T12:33:12.213Z,22.77
2024-05-09T12:35:44.095Z,22.69
2024-05-09T12:38:15.141Z,22.52
2024-05-09T12:40:43.652Z,22.18
2024-05-09T12:43:11.942Z,21.55
2024-05-09T12:45:40.447Z,21.38
2024-05-09T12:48:11.373Z,21.71
2024-05-09T12:50:40.496Z,22.22
2024-05-09T12:53:08.263Z,22.29
2024-05-09T12:55:44.571Z,22.31
2024-05-09T12:58:23.952Z,22.55
2024-05-09T13:00:52.603Z,22.84
2024-05-09T13:03:21.556Z,23.00
2024-05-09T13:05:50.635Z,22.79
2024-05-09T13:08:19.420Z,22.75
2024-05-09T13:10:47.814Z,22.60
2024-05-09T13:13:15.670Z,22.08
2024-05-09T13:15:43.528Z,21.72
2024-05-09T13:18:11.521Z,21.87
2024-05-09T13:20:39.082Z,21.80
2024-05-09T13:23:08.307Z,22.03
2024-05-09T13:25:38.295Z,22.21
2024-05-09T13:28:06.980Z,22.40
2024-05-09T13:30:40.050Z,22.74
2024-05-09T13:33:11.930Z,23.04
2024-05-09T13:35:45.728Z,23.09
2024-05-09T13:38:21.203Z,23.35
2024-05-09T13:40:50.440Z,23.37
2024-05-09T13:43:19.772Z,23.05
2024-05-09T13:45:47.715Z,23.24
2024-05-09T13:48:15.678Z,23.33
2024-05-09T13:50:43.518Z,23.27
2024-05-09T13:53:11.706Z,23.56
2024-05-09T13:55:40.170Z,23.95
2024-05-09T13:58:09.124Z,23.94
2024-05-09T14:00:46.588Z,23.83
2024-05-09T14:03:19.646Z,23.89
2024-05-09T14:05:51.096Z,23.90
2024-05-09T14:08:21.738Z,23.59
2024-05-09T14:10:50.132Z,23.11
2024-05-09T14:13:18.424Z,23.08
2024-05-09T14:15:46.709Z,23.15
2024-05-09T14:18:15.061Z,22.96
2024-05-09T14:20:43.275Z,22.96
2024-05-09T14:23:11.255Z,23.05
2024-05-09T14:25:42.316Z,23.01
2024-05-09T14:28:12.564Z,22.56
2024-05-09T14:30:43.764Z,22.15
2024-05-09T14:33:11.733Z,21.75
2024-05-09T14:35:39.754Z,21.32
2024-05-09T14:38:08.538Z,20.99
2024-05-09T14:40:42.145Z,20.81
2024-05-09T14:43:13.737Z,20.75
2024-05-09T14:45:42.391Z,20.77
2024-05-09T14:48:11.742Z,20.81
2024-05-09T14:50:40.702Z,20.86
2024-05-09T14:53:10.599Z,20.91
2024-05-09T14:55:40.468Z,20.80
2024-05-09T14:58:10.201Z,20.68
2024-05-09T15:00:45.752Z,20.65
2024-05-09T15:03:18.676Z,20.51
2024-05-09T15:05:47.309Z,20.28
2024-05-09T15:08:17.175Z,20.24
2024-05-09T15:10:44.952Z,20.14
2024-05-09T15:13:15.476Z,20.03
2024-05-09T15:15:44.461Z,20.03
2024-05-09T15:18:13.460Z,20.02
2024-05-09T15:20:43.601Z,20.01
2024-05-09T15:23:11.507Z,19.94
2024-05-09T15:25:39.270Z,19.91
2024-05-09T15:28:08.162Z,19.81
2024-05-09T15:30:36.595Z,19.67
2024-05-09T15:33:05.745Z,19.47
2024-05-09T15:35:34.891Z,19.35
2024-05-09T15:38:03.514Z,19.29
2024-05-09T15:40:38.691Z,19.23
2024-05-09T15:43:09.912Z,19.37
2024-05-09T15:45:40.241Z,19.47
2024-05-09T15:48:10.347Z,19.44
2024-05-09T15:50:41.346Z,19.35
2024-05-09T15:53:12.240Z,19.23
2024-05-09T15:55:42.681Z,19.11
2024-05-09T15:58:11.106Z,18.93
2024-05-09T16:00:42.215Z,18.84
2024-05-09T16:03:13.363Z,18.79
2024-05-09T16:05:46.371Z,18.74
2024-05-09T16:08:15.587Z,18.70
2024-05-09T16:10:45.834Z,18.52
2024-05-09T16:13:15.188Z,18.35
2024-05-09T16:15:43.706Z,18.22
2024-05-09T16:18:12.497Z,18.16
2024-05-09T16:20:42.315Z,18.18
2024-05-09T16:23:12.505Z,18.25
2024-05-09T16:25:45.055Z,18.30
2024-05-09T16:28:13.449Z,18.31
2024-05-09T16:30:41.560Z,18.35
2024-05-09T16:33:10.789Z,18.31
2024-05-09T16:35:39.184Z,18.34
2024-05-09T16:38:07.258Z,18.38
2024-05-09T16:40:39.812Z,18.38
2024-05-09T16:43:10.263Z,18.37
2024-05-09T16:45:39.897Z,18.37
2024-05-09T16:48:08.766Z,18.32
2024-05-09T16:50:37.142Z,18.18
2024-05-09T16:53:06.243Z,18.10
2024-05-09T16:55:35.589Z,18.06
2024-05-09T16:58:04.314Z,18.01
2024-05-09T17:00:40.216Z,17.98
2024-05-09T17:03:14.236Z,17.95
2024-05-09T17:05:46.010Z,17.94
2024-05-09T17:08:16.688Z,17.95
2024-05-09T17:10:45.773Z,17.95
2024-05-09T17:13:13.992Z,17.92
2024-05-09T17:15:41.711Z,17.90
2024-05-09T17:18:09.701Z,17.83
2024-05-09T17:20:37.966Z,17.81
2024-05-09T17:23:12.913Z,17.81
2024-05-09T17:25:42.265Z,17.81
2024-05-09T17:28:10.866Z,17.78
2024-05-09T17:30:40.775Z,17.76
2024-05-09T17:33:11.386Z,17.75
2024-05-09T17:35:40.263Z,17.72
2024-05-09T17:38:08.229Z,17.71
2024-05-09T17:40:37.963Z,17.70
2024-05-09T17:43:08.952Z,17.66
2024-05-09T17:45:41.890Z,17.59
2024-05-09T17:48:11.651Z,17.52
2024-05-09T17:50:41.493Z,17.44
2024-05-09T17:53:10.245Z,17.39
2024-05-09T17:55:39.557Z,17.32
2024-05-09T17:58:07.712Z,17.23
2024-05-09T18:00:39.678Z,17.14
2024-05-09T18:03:11.860Z,17.08
2024-05-09T18:05:41.999Z,17.00
2024-05-09T18:08:10.333Z,16.92
2024-05-09T18:10:40.416Z,16.83
2024-05-09T18:13:09.209Z,16.76
2024-05-09T18:15:38.191Z,16.69
2024-05-09T18:18:07.385Z,16.64
2024-05-09T18:20:42.290Z,16.57
2024-05-09T18:23:16.139Z,16.50
2024-05-09T18:25:46.744Z,16.44
2024-05-09T18:28:15.574Z,16.38
2024-05-09T18:30:43.531Z,16.30
2024-05-09T18:33:12.175Z,16.24
2024-05-09T18:35:44.591Z,16.18
2024-05-09T18:38:13.161Z,16.12
2024-05-09T18:40:43.572Z,16.08
2024-05-09T18:43:13.099Z,16.03
2024-05-09T18:45:40.910Z,15.95
2024-05-09T18:48:12.411Z,15.89
2024-05-09T18:50:41.450Z,15.78
2024-05-09T18:53:11.800Z,15.70
2024-05-09T18:55:43.920Z,15.63
2024-05-09T18:58:11.921Z,15.56
2024-05-09T19:00:42.656Z,15.51
2024-05-09T19:03:14.292Z,15.42
2024-05-09T19:05:45.002Z,15.35
2024-05-09T19:08:14.666Z,15.30
2024-05-09T19:10:42.914Z,15.23
2024-05-09T19:13:13.836Z,15.17
2024-05-09T19:15:43.393Z,15.12
2024-05-09T19:18:13.039Z,15.07
2024-05-09T19:20:41.492Z,15.00
2024-05-09T19:23:10.702Z,14.95
2024-05-09T19:25:38.638Z,14.90
2024-05-09T19:28:06.529Z,14.85
2024-05-09T19:30:39.790Z,14.80
2024-05-09T19:33:14.600Z,14.73
2024-05-09T19:35:43.613Z,14.67
2024-05-09T19:38:12.531Z,14.63
2024-05-09T19:40:40.738Z,14.60
2024-05-09T19:43:09.015Z,14.56
2024-05-09T19:45:37.019Z,14.49
2024-05-09T19:48:06.625Z,14.40
2024-05-09T19:50:41.592Z,14.34
2024-05-09T19:53:13.292Z,14.25
2024-05-09T19:55:41.815Z,14.18
2024-05-09T19:58:10.822Z,14.10
2024-05-09T20:00:41.373Z,14.01
2024-05-09T20:03:12.051Z,13.92
2024-05-09T20:05:42.804Z,13.80
2024-05-09T20:08:10.911Z,13.71
2024-05-09T20:10:38.768Z,13.60
2024-05-09T20:13:08.148Z,13.52
2024-05-09T20:15:37.547Z,13.44
2024-05-09T20:18:06.301Z,13.37
2024-05-09T20:20:39.323Z,13.29
2024-05-09T20:23:11.298Z,13.23
2024-05-09T20:25:39.770Z,13.14
2024-05-09T20:28:07.663Z,13.10
2024-05-09T20:30:36.560Z,13.07
2024-05-09T20:33:07.037Z,13.02
2024-05-09T20:35:36.282Z,12.97
2024-05-09T20:38:04.705Z,12.90
2024-05-09T20:40:36.751Z,12.80
2024-05-09T20:43:10.364Z,12.68
2024-05-09T20:45:39.320Z,12.62
2024-05-09T20:48:08.550Z,12.55
2024-05-09T20:50:40.497Z,12.46
2024-05-09T20:53:14.468Z,12.38
2024-05-09T20:55:44.415Z,12.32
2024-05-09T20:58:13.680Z,12.22
2024-05-09T21:00:44.683Z,12.13
2024-05-09T21:03:16.675Z,12.05
2024-05-09T21:05:46.558Z,11.97
2024-05-09T21:08:14.929Z,11.91
2024-05-09T21:10:42.645Z,11.85
2024-05-09T21:13:11.234Z,11.79
2024-05-09T21:15:39.131Z,11.75
2024-05-09T21:18:07.424Z,11.71
2024-05-09T21:20:35.503Z,11.68
2024-05-09T21:23:03.808Z,11.62
2024-05-09T21:25:32.227Z,11.55
2024-05-09T21:28:00.702Z,11.47
2024-05-09T21:30:38.423Z,11.41
2024-05-09T21:33:12.462Z,11.34
2024-05-09T21:35:42.646Z,11.27
2024-05-09T21:38:10.537Z,11.24
2024-05-09T21:40:38.796Z,11.20
2024-05-09T21:43:07.498Z,11.15
2024-05-09T21:45:36.371Z,11.11
2024-05-09T21:48:05.508Z,11.07
2024-05-09T21:50:39.697Z,11.04
2024-05-09T21:53:13.220Z,11.02
2024-05-09T21:55:42.126Z,10.99
2024-05-09T21:58:11.374Z,10.93
2024-05-09T22:00:40.625Z,10.88
2024-05-09T22:03:10.693Z,10.82
2024-05-09T22:05:41.764Z,10.79
2024-05-09T22:08:10.575Z,10.76
2024-05-09T22:10:38.454Z,10.73
2024-05-09T22:13:07.232Z,10.70
2024-05-09T22:15:39.186Z,10.66
2024-05-09T22:18:10.068Z,10.60
2024-05-09T22:20:44.490Z,10.52
2024-05-09T22:23:14.731Z,10.45
2024-05-09T22:25:42.673Z,10.36
2024-05-09T22:28:14.347Z,10.27
2024-05-09T22:30:43.861Z,10.14
2024-05-09T22:33:12.373Z,10.05
2024-05-09T22:35:41.848Z,10.04
2024-05-09T22:38:09.528Z,10.00
2024-05-09T22:40:45.545Z,9.97
2024-05-09T22:43:19.383Z,9.92
2024-05-09T22:45:47.684Z,9.89
2024-05-09T22:48:15.862Z,9.88
2024-05-09T22:50:43.725Z,9.91
2024-05-09T22:53:11.449Z,9.92
2024-05-09T22:55:39.137Z,9.91
2024-05-09T22:58:06.920Z,9.90
2024-05-09T23:00:35.167Z,9.87
2024-05-09T23:03:03.322Z,9.83
2024-05-09T23:05:32.304Z,9.77
2024-05-09T23:08:01.443Z,9.70
2024-05-09T23:10:35.546Z,9.64
2024-05-09T23:13:06.490Z,9.59
2024-05-09T23:15:35.561Z,9.54
2024-05-09T23:18:03.827Z,9.50
2024-05-09T23:20:37.294Z,9.47
2024-05-09T23:23:08.506Z,9.45
2024-05-09T23:25:36.897Z,9.47
2024-05-09T23:28:05.516Z,9.47
2024-05-09T23:30:38.437Z,9.44
2024-05-09T23:33:13.067Z,9.42
2024-05-09T23:35:43.398Z,9.39
2024-05-09T23:38:11.863Z,9.37
2024-05-09T23:40:41.352Z,9.33
2024-05-09T23:43:11.378Z,9.27
2024-05-09T23:45:40.517Z,9.23
2024-05-09T23:48:08.903Z,9.19
2024-05-09T23:50:38.646Z,9.13
2024-05-09T23:53:09.363Z,9.08
2024-05-09T23:55:38.877Z,9.05
2024-05-09T23:58:07.853Z,8.99
